Time;durP1;ratioP1;P1;durP2;ratioP2;P2;SDS_P1;SDS_P2;PMS_P1;PMS_P2;Temp;Humidity;BMP_temperature;BMP_pressure;BME280_temperature;BME280_humidity;BME280_pressure;Samples;Min_cycle;Max_cycle;Signal;HPM_P1;HPM_P2
2022/11/26 00:02:27;;;;;;;18.97;13.10;;;11.90;99.90;;;;;;5051200;28;20817;-70
2022/11/26 00:04:54;;;;;;;14.30;11.10;;;11.80;99.90;;;;;;5052635;28;20252;-70
2022/11/26 00:07:25;;;;;;;14.50;12.13;;;11.80;99.90;;;;;;5055663;28;20796;-70
2022/11/26 00:09:52;;;;;;;20.57;13.80;;;11.80;99.90;;;;;;5038469;28;20458;-70
2022/11/26 00:12:21;;;;;;;19.63;13.40;;;11.80;99.90;;;;;;5055412;28;21059;-69
2022/11/26 00:14:47;;;;;;;20.00;12.63;;;11.70;99.90;;;;;;5055266;28;20454;-70
2022/11/26 00:17:16;;;;;;;19.27;13.60;;;11.80;99.90;;;;;;5055480;28;20423;-70
2022/11/26 00:19:43;;;;;;;19.20;13.13;;;11.80;99.90;;;;;;5052841;28;20793;-69
2022/11/26 00:22:28;;;;;;;18.17;13.33;;;11.70;99.90;;;;;;5047853;28;20448;-70
2022/11/26 00:24:54;;;;;;;24.77;12.87;;;11.70;99.90;;;;;;5055870;28;20460;-70
2022/11/26 00:27:23;;;;;;;18.27;12.30;;;11.70;99.90;;;;;;5037386;28;20414;-69
2022/11/26 00:29:49;;;;;;;21.50;14.00;;;11.60;99.90;;;;;;5055803;28;20772;-70
2022/11/26 00:32:17;;;;;;;21.73;13.87;;;11.60;99.90;;;;;;5053895;28;20416;-69
2022/11/26 00:34:42;;;;;;;18.43;13.73;;;11.60;99.90;;;;;;5055767;28;20192;-70
2022/11/26 00:37:27;;;;;;;23.13;13.83;;;11.60;99.90;;;;;;5055114;28;20420;-70
2022/11/26 00:39:54;;;;;;;21.30;13.93;;;11.50;99.90;;;;;;5055572;28;20239;-70
2022/11/26 00:42:20;;;;;;;27.80;13.13;;;11.50;99.90;;;;;;5037182;28;20563;-70
2022/11/26 00:44:47;;;;;;;24.57;14.40;;;11.50;99.90;;;;;;5037001;28;20537;-70
2022/11/26 00:47:12;;;;;;;18.67;12.90;;;11.50;99.90;;;;;;5055018;28;20421;-70
2022/11/26 00:49:38;;;;;;;18.90;13.73;;;11.50;99.90;;;;;;5054859;28;20780;-69
2022/11/26 00:52:13;;;;;;;21.40;14.00;;;11.50;99.90;;;;;;5054635;28;20231;-70
2022/11/26 00:54:39;;;;;;;22.47;14.50;;;11.50;99.90;;;;;;5055785;28;20167;-70
2022/11/26 00:57:08;;;;;;;19.43;13.80;;;11.40;99.90;;;;;;5054743;28;20480;-70
2022/11/26 00:59:34;;;;;;;21.70;14.90;;;11.40;99.90;;;;;;5055005;28;20624;-70
2022/11/26 01:01:59;;;;;;;19.50;14.20;;;11.40;99.90;;;;;;5053932;28;20527;-69
2022/11/26 01:04:25;;;;;;;20.60;13.93;;;11.40;99.90;;;;;;5053947;28;20573;-69
2022/11/26 01:06:51;;;;;;;18.67;13.53;;;11.40;99.90;;;;;;5055174;28;20274;-70
2022/11/26 01:09:19;;;;;;;23.57;15.00;;;11.40;99.90;;;;;;5053848;28;20231;-70
2022/11/26 01:11:46;;;;;;;20.43;15.17;;;11.40;99.90;;;;;;5055146;28;20697;-70
2022/11/26 01:14:17;;;;;;;22.03;14.27;;;11.40;99.90;;;;;;5036573;28;20439;-70
2022/11/26 01:16:45;;;;;;;23.57;13.60;;;11.40;99.90;;;;;;5055006;28;20419;-69
2022/11/26 01:19:13;;;;;;;18.20;13.33;;;11.30;99.90;;;;;;5054032;28;20908;-70
2022/11/26 01:21:39;;;;;;;21.33;14.17;;;11.40;99.90;;;;;;5054914;28;20408;-70
2022/11/26 01:24:05;;;;;;;22.40;14.67;;;11.40;99.90;;;;;;5053552;28;20912;-70
2022/11/26 01:26:42;;;;;;;21.13;13.20;;;11.30;99.90;;;;;;5054539;28;20441;-70
2022/11/26 01:29:16;;;;;;;21.80;13.77;;;11.20;99.90;;;;;;5054492;28;20401;-70
2022/11/26 01:31:42;;;;;;;20.60;15.77;;;11.30;99.90;;;;;;5053967;28;20429;-70
2022/11/26 01:34:07;;;;;;;25.33;15.00;;;11.20;99.90;;;;;;5053324;28;20429;-69
2022/11/26 01:36:36;;;;;;;21.67;13.87;;;11.20;99.90;;;;;;5054640;28;20524;-70
2022/11/26 01:39:09;;;;;;;21.73;14.53;;;11.10;99.90;;;;;;5054742;28;20464;-69
2022/11/26 01:42:02;;;;;;;23.73;14.80;;;11.10;99.90;;;;;;5053946;28;20907;-70
2022/11/26 01:44:30;;;;;;;19.53;14.00;;;11.10;99.90;;;;;;5053275;28;20446;-70
2022/11/26 01:46:57;;;;;;;25.57;15.30;;;11.10;99.90;;;;;;5054067;28;20410;-70
2022/11/26 01:49:32;;;;;;;22.73;14.80;;;11.10;99.90;;;;;;5019136;28;20478;-70
2022/11/26 01:52:22;;;;;;;21.43;15.00;;;11.00;99.90;;;;;;5054090;28;20403;-70
2022/11/26 01:54:48;;;;;;;20.23;14.57;;;11.10;99.90;;;;;;5053479;28;20462;-70
2022/11/26 01:57:28;;;;;;;25.33;15.47;;;11.10;99.90;;;;;;5035120;28;20423;-70
2022/11/26 02:00:00;;;;;;;21.10;14.93;;;11.10;99.90;;;;;;5052285;28;20430;-70
2022/11/26 02:02:27;;;;;;;25.03;15.57;;;11.10;99.90;;;;;;5053024;28;20403;-70
2022/11/26 02:05:03;;;;;;;24.90;14.73;;;11.20;99.90;;;;;;5053679;28;20451;-69
2022/11/26 02:07:29;;;;;;;22.30;15.00;;;11.20;99.90;;;;;;5034728;28;20520;-70
2022/11/26 02:09:55;;;;;;;19.77;13.37;;;11.20;99.90;;;;;;5052973;28;20429;-70
2022/11/26 02:12:20;;;;;;;17.13;12.77;;;11.30;99.90;;;;;;5052565;28;20411;-70
2022/11/26 02:14:47;;;;;;;23.70;13.60;;;11.30;99.90;;;;;;5035856;28;20280;-70
2022/11/26 02:17:37;;;;;;;24.70;15.00;;;11.20;99.90;;;;;;5052511;28;20412;-70
2022/11/26 02:20:12;;;;;;;26.63;15.40;;;11.20;99.90;;;;;;5053466;28;20416;-69
2022/11/26 02:23:10;;;;;;;20.60;14.60;;;11.20;99.90;;;;;;5052635;28;20415;-70
2022/11/26 02:25:49;;;;;;;22.63;11.63;;;11.20;99.90;;;;;;5012378;28;20474;-69
2022/11/26 02:28:26;;;;;;;21.30;12.17;;;11.10;99.90;;;;;;5051892;28;20403;-69
2022/11/26 02:31:00;;;;;;;19.17;12.83;;;11.10;99.90;;;;;;5034516;28;20433;-70
2022/11/26 02:33:31;;;;;;;17.90;12.30;;;11.10;99.90;;;;;;5052473;28;20519;-70
2022/11/26 02:36:08;;;;;;;18.30;12.00;;;11.10;99.90;;;;;;5053170;28;20487;-69
2022/11/26 02:38:36;;;;;;;18.63;12.40;;;11.00;99.90;;;;;;5051909;28;20426;-70
2022/11/26 02:41:02;;;;;;;20.70;12.50;;;11.00;99.90;;;;;;5053096;28;20419;-70
2022/11/26 02:43:29;;;;;;;21.20;11.80;;;10.90;99.90;;;;;;5033937;28;21037;-69
2022/11/26 02:46:02;;;;;;;17.57;11.80;;;10.90;99.90;;;;;;5052835;28;20715;-69
2022/11/26 02:48:33;;;;;;;17.53;12.20;;;10.80;99.90;;;;;;5050594;28;20442;-70
2022/11/26 02:51:04;;;;;;;21.57;12.90;;;10.80;99.90;;;;;;5051758;28;20431;-70
2022/11/26 02:53:36;;;;;;;15.03;11.50;;;10.70;99.90;;;;;;5052049;28;20472;-69
2022/11/26 02:56:08;;;;;;;15.40;11.70;;;10.70;99.90;;;;;;5052798;28;20392;-69
2022/11/26 02:58:35;;;;;;;18.93;11.60;;;10.70;99.90;;;;;;5051522;28;20451;-70
2022/11/26 03:01:06;;;;;;;18.67;12.30;;;10.60;99.90;;;;;;5051972;28;20506;-70
2022/11/26 03:03:36;;;;;;;17.80;11.20;;;10.50;99.90;;;;;;5052150;28;20395;-69
2022/11/26 03:06:10;;;;;;;23.13;12.97;;;10.50;99.90;;;;;;5052615;28;20538;-70
2022/11/26 03:08:36;;;;;;;22.30;13.10;;;10.40;99.90;;;;;;5051989;28;20463;-70
2022/11/26 03:11:02;;;;;;;17.87;11.87;;;10.40;99.90;;;;;;5052532;28;20422;-70
2022/11/26 03:13:28;;;;;;;18.23;11.23;;;10.40;99.90;;;;;;5050871;28;20425;-70
2022/11/26 03:15:54;;;;;;;19.23;12.83;;;10.40;99.90;;;;;;5034750;28;20415;-70
2022/11/26 03:18:20;;;;;;;23.97;12.67;;;10.40;99.90;;;;;;5051784;28;20208;-70
2022/11/26 03:20:45;;;;;;;22.53;11.70;;;10.30;99.90;;;;;;5052664;28;20511;-70
2022/11/26 03:23:11;;;;;;;18.03;11.20;;;10.30;99.90;;;;;;5032985;28;20190;-72
2022/11/26 03:25:37;;;;;;;16.97;11.07;;;10.20;99.90;;;;;;5051119;28;20208;-69
2022/11/26 03:28:03;;;;;;;19.33;12.23;;;10.20;99.90;;;;;;5052042;28;20251;-69
2022/11/26 03:30:28;;;;;;;16.83;11.03;;;10.20;99.90;;;;;;5050719;28;20174;-70
2022/11/26 03:32:54;;;;;;;24.93;14.00;;;10.20;99.90;;;;;;5050301;28;20436;-69
2022/11/26 03:35:20;;;;;;;17.07;11.60;;;10.20;99.90;;;;;;5051376;28;20539;-70
2022/11/26 03:37:46;;;;;;;21.93;11.17;;;10.10;99.90;;;;;;5051488;28;20494;-69
2022/11/26 03:40:12;;;;;;;17.77;11.80;;;10.10;99.90;;;;;;5033819;28;20206;-71
2022/11/26 03:42:38;;;;;;;19.47;12.40;;;10.10;99.90;;;;;;5051766;28;20654;-69
2022/11/26 03:45:04;;;;;;;15.00;11.27;;;10.10;99.90;;;;;;5052032;28;20467;-69
2022/11/26 03:47:29;;;;;;;22.70;12.57;;;10.10;99.90;;;;;;5050828;28;20622;-69
2022/11/26 03:49:55;;;;;;;14.30;11.40;;;10.10;99.90;;;;;;5000360;28;20436;-69
2022/11/26 03:52:21;;;;;;;20.37;11.20;;;10.10;99.90;;;;;;5050691;28;20542;-69
2022/11/26 03:54:46;;;;;;;21.90;12.70;;;10.00;99.90;;;;;;5052277;28;20194;-70
2022/11/26 03:57:12;;;;;;;17.90;10.93;;;10.00;99.90;;;;;;5033919;28;20700;-71
2022/11/26 03:59:38;;;;;;;14.87;10.67;;;10.00;99.90;;;;;;5050754;28;20185;-70
2022/11/26 04:02:05;;;;;;;14.83;10.80;;;9.90;99.90;;;;;;5050847;28;20263;-70
2022/11/26 04:04:31;;;;;;;16.33;10.63;;;10.00;99.90;;;;;;5033160;28;20253;-70
2022/11/26 04:06:56;;;;;;;18.50;11.10;;;9.80;99.90;;;;;;5051569;28;20991;-69
2022/11/26 04:09:22;;;;;;;15.80;10.80;;;9.90;99.90;;;;;;5033231;28;20452;-70
2022/11/26 04:11:48;;;;;;;17.30;11.43;;;9.90;99.90;;;;;;5051778;28;20186;-69
2022/11/26 04:14:14;;;;;;;15.87;11.07;;;9.90;99.90;;;;;;5051432;28;20968;-71
2022/11/26 04:16:40;;;;;;;17.23;10.27;;;9.90;99.90;;;;;;5050653;28;20187;-68
2022/11/26 04:19:05;;;;;;;19.20;11.40;;;9.90;99.90;;;;;;5051800;28;20763;-68
2022/11/26 04:21:31;;;;;;;15.10;10.67;;;9.90;99.90;;;;;;5050958;28;20220;-68
2022/11/26 04:23:57;;;;;;;12.30;10.23;;;9.90;99.90;;;;;;5050764;28;20193;-68
2022/11/26 04:26:22;;;;;;;15.43;10.70;;;9.90;99.90;;;;;;5050809;28;20214;-68
2022/11/26 04:28:49;;;;;;;15.43;11.50;;;9.90;99.90;;;;;;5050896;28;20360;-67
2022/11/26 04:31:15;;;;;;;14.10;10.53;;;9.90;99.90;;;;;;5050538;28;20186;-69
2022/11/26 04:33:41;;;;;;;16.23;11.03;;;9.80;99.90;;;;;;5051375;28;20408;-67
2022/11/26 04:36:08;;;;;;;17.27;12.07;;;9.90;99.90;;;;;;5033886;28;20424;-67
2022/11/26 04:38:34;;;;;;;18.20;12.37;;;9.90;99.90;;;;;;5050820;28;20950;-68
2022/11/26 04:41:00;;;;;;;18.27;11.93;;;9.90;99.90;;;;;;5050886;28;20500;-68
2022/11/26 04:43:25;;;;;;;17.20;11.80;;;10.00;99.90;;;;;;5050704;28;20504;-67
2022/11/26 04:45:51;;;;;;;17.40;12.17;;;10.00;99.90;;;;;;5051177;28;20207;-67
2022/11/26 04:48:17;;;;;;;15.20;10.50;;;10.10;99.90;;;;;;5051093;28;20181;-70
2022/11/26 04:50:43;;;;;;;16.83;11.03;;;10.10;99.90;;;;;;5051932;28;20280;-68
2022/11/26 04:53:08;;;;;;;19.40;11.30;;;10.00;99.90;;;;;;5036697;28;20903;-68
2022/11/26 04:55:34;;;;;;;13.97;10.57;;;9.90;99.90;;;;;;5054230;28;20193;-67
2022/11/26 04:58:00;;;;;;;11.43;10.23;;;9.90;99.90;;;;;;5055004;28;20179;-68
2022/11/26 05:00:26;;;;;;;18.10;10.27;;;9.90;99.90;;;;;;5052063;28;20176;-68
2022/11/26 05:02:51;;;;;;;16.63;11.57;;;9.80;99.90;;;;;;5053310;28;20215;-68
2022/11/26 05:05:17;;;;;;;13.80;10.40;;;9.80;99.90;;;;;;5053985;28;20705;-68
2022/11/26 05:07:43;;;;;;;16.40;11.87;;;9.70;99.90;;;;;;5055143;28;20460;-68
2022/11/26 05:10:10;;;;;;;19.30;11.93;;;9.60;99.90;;;;;;5054309;28;20901;-68
2022/11/26 05:12:35;;;;;;;20.10;12.20;;;9.60;99.90;;;;;;5045989;28;20583;-68
2022/11/26 05:15:02;;;;;;;17.23;11.60;;;9.50;99.90;;;;;;5055097;28;20456;-67
2022/11/26 05:17:27;;;;;;;17.10;13.20;;;9.60;99.90;;;;;;5053190;28;20666;-68
2022/11/26 05:19:53;;;;;;;15.77;12.03;;;9.50;99.90;;;;;;5055247;28;20424;-67
2022/11/26 05:22:19;;;;;;;19.67;12.30;;;9.50;99.90;;;;;;5036460;28;20178;-68
2022/11/26 05:24:44;;;;;;;14.53;12.13;;;9.50;99.90;;;;;;5055168;28;20213;-68
2022/11/26 05:27:10;;;;;;;18.33;11.30;;;9.50;99.90;;;;;;5050926;28;20271;-68
2022/11/26 05:29:36;;;;;;;16.67;12.23;;;9.60;99.90;;;;;;5052864;28;20505;-68
2022/11/26 05:32:02;;;;;;;18.33;12.60;;;9.70;99.90;;;;;;5054829;28;20168;-67
2022/11/26 05:34:27;;;;;;;18.30;11.57;;;9.70;99.90;;;;;;5054207;28;20183;-68
2022/11/26 05:36:53;;;;;;;19.40;12.73;;;9.70;99.90;;;;;;5054893;28;20609;-68
2022/11/26 05:39:19;;;;;;;20.80;12.37;;;9.80;99.90;;;;;;5053582;28;20172;-68
2022/11/26 05:41:44;;;;;;;16.03;12.23;;;9.80;99.90;;;;;;5054469;28;20191;-68
2022/11/26 05:44:10;;;;;;;21.37;13.00;;;9.80;99.90;;;;;;5054439;28;20442;-67
2022/11/26 05:46:39;;;;;;;18.13;13.43;;;9.90;99.90;;;;;;5033220;28;20171;-68
2022/11/26 05:49:05;;;;;;;17.90;12.43;;;9.90;99.90;;;;;;5054725;28;20180;-67
2022/11/26 05:51:30;;;;;;;17.50;11.90;;;10.00;99.90;;;;;;5034672;28;20903;-68
2022/11/26 05:53:56;;;;;;;14.63;10.80;;;10.00;99.90;;;;;;5054351;28;20207;-67
2022/11/26 05:56:22;;;;;;;18.43;12.07;;;9.90;99.90;;;;;;5039348;28;20182;-70
2022/11/26 05:58:48;;;;;;;15.70;11.00;;;9.90;99.90;;;;;;5051938;28;20184;-69
2022/11/26 06:01:13;;;;;;;23.50;11.20;;;9.80;99.90;;;;;;5049790;28;20225;-69
2022/11/26 06:03:39;;;;;;;25.10;11.80;;;9.80;99.90;;;;;;5051049;28;20212;-69
2022/11/26 06:06:05;;;;;;;22.63;12.80;;;9.80;99.90;;;;;;5018580;28;20286;-69
2022/11/26 06:08:31;;;;;;;18.50;12.10;;;9.80;99.90;;;;;;5033858;28;20452;-69
2022/11/26 06:10:56;;;;;;;20.93;12.30;;;9.90;99.90;;;;;;5042130;28;20413;-69
2022/11/26 06:13:22;;;;;;;18.80;12.37;;;9.80;99.90;;;;;;5053539;28;20177;-69
2022/11/26 06:15:48;;;;;;;17.90;12.03;;;9.80;99.90;;;;;;5053146;28;20217;-69
2022/11/26 06:18:13;;;;;;;20.77;12.87;;;9.80;99.90;;;;;;5054237;28;20172;-69
2022/11/26 06:20:39;;;;;;;15.27;11.80;;;9.80;99.90;;;;;;5053412;28;20233;-69
2022/11/26 06:23:05;;;;;;;21.03;11.60;;;9.80;99.90;;;;;;5054335;28;20166;-69
2022/11/26 06:25:31;;;;;;;19.80;11.70;;;9.90;99.90;;;;;;5034634;28;20289;-69
2022/11/26 06:27:56;;;;;;;21.70;13.07;;;9.90;99.90;;;;;;5052964;28;20241;-70
2022/11/26 06:30:22;;;;;;;24.23;13.67;;;10.00;99.90;;;;;;5051854;28;20181;-70
2022/11/26 06:32:48;;;;;;;19.97;12.73;;;10.00;99.90;;;;;;5051598;28;20169;-69
2022/11/26 06:35:13;;;;;;;16.70;11.50;;;10.00;99.90;;;;;;5052830;28;20345;-68
2022/11/26 06:37:39;;;;;;;19.10;12.80;;;10.00;99.90;;;;;;5035289;28;20181;-69
2022/11/26 06:40:06;;;;;;;19.80;12.60;;;10.00;99.90;;;;;;5052832;28;20266;-68
2022/11/26 06:42:31;;;;;;;19.60;13.00;;;10.00;99.90;;;;;;5049311;28;20265;-69
2022/11/26 06:44:57;;;;;;;18.60;13.00;;;10.00;99.90;;;;;;5033240;28;20991;-68
2022/11/26 06:47:23;;;;;;;21.13;13.73;;;10.00;99.90;;;;;;5050978;28;20206;-69
2022/11/26 06:49:48;;;;;;;20.17;12.63;;;10.00;99.90;;;;;;5053343;28;20170;-68
2022/11/26 06:52:14;;;;;;;18.53;12.23;;;10.00;99.90;;;;;;5034788;28;20216;-68
2022/11/26 06:54:40;;;;;;;20.20;12.40;;;10.00;99.90;;;;;;5034066;28;20268;-68
2022/11/26 06:57:06;;;;;;;19.50;12.80;;;9.90;99.90;;;;;;5048458;28;20174;-68
2022/11/26 06:59:31;;;;;;;17.50;11.60;;;9.90;99.90;;;;;;5040112;28;20178;-69
2022/11/26 07:01:57;;;;;;;20.20;12.10;;;;;;;;;;5043281;28;20189;-68
2022/11/26 07:04:23;;;;;;;17.63;12.67;;;9.90;99.90;;;;;;5046303;28;20180;-70
2022/11/26 07:06:49;;;;;;;19.90;11.63;;;9.90;99.90;;;;;;5051541;28;20449;-68
2022/11/26 07:09:15;;;;;;;21.53;12.10;;;9.70;99.90;;;;;;5052128;28;20509;-70
2022/11/26 07:11:41;;;;;;;17.67;12.37;;;9.70;99.90;;;;;;5048413;28;20189;-68
2022/11/26 07:14:07;;;;;;;21.57;13.00;;;9.70;99.90;;;;;;5033363;28;20407;-68
2022/11/26 07:16:33;;;;;;;19.43;13.10;;;9.70;99.90;;;;;;5042200;28;20419;-68
2022/11/26 07:18:59;;;;;;;18.40;13.00;;;9.70;99.90;;;;;;5051122;28;20439;-68
2022/11/26 07:21:26;;;;;;;19.13;12.77;;;9.60;99.90;;;;;;5050799;28;20444;-69
2022/11/26 07:23:52;;;;;;;20.30;11.80;;;9.70;99.90;;;;;;5051358;28;20417;-68
2022/11/26 07:26:20;;;;;;;17.10;12.00;;;9.70;99.90;;;;;;5032870;28;20531;-68
2022/11/26 07:28:46;;;;;;;19.87;11.67;;;9.60;99.90;;;;;;5041801;28;20876;-70
2022/11/26 07:31:17;;;;;;;18.20;12.00;;;9.60;99.90;;;;;;5051221;28;20965;-68
2022/11/26 07:33:44;;;;;;;23.17;13.17;;;9.60;99.90;;;;;;5050806;28;20455;-68
2022/11/26 07:36:19;;;;;;;21.30;12.43;;;9.50;99.90;;;;;;5051972;28;20424;-68
2022/11/26 07:38:44;;;;;;;18.20;12.20;;;9.50;99.90;;;;;;5051153;28;20451;-68
2022/11/26 07:41:13;;;;;;;18.10;12.37;;;9.60;99.90;;;;;;5047988;28;20428;-70
2022/11/26 07:43:40;;;;;;;66.77;38.90;;;9.50;99.90;;;;;;5032060;28;20171;-68
2022/11/26 07:46:08;;;;;;;110.50;58.70;;;9.50;99.90;;;;;;5050404;28;20456;-68
2022/11/26 07:48:34;;;;;;;21.80;15.53;;;9.60;99.90;;;;;;5051260;28;20417;-68
2022/11/26 07:51:01;;;;;;;20.90;13.53;;;9.60;99.90;;;;;;5052517;28;20423;-68
2022/11/26 07:53:28;;;;;;;19.20;12.70;;;9.70;99.90;;;;;;5052131;28;20413;-69
2022/11/26 07:55:54;;;;;;;18.43;12.60;;;9.70;99.90;;;;;;5052466;28;20500;-68
2022/11/26 07:58:20;;;;;;;17.53;11.77;;;9.70;99.90;;;;;;5037543;28;20948;-69
2022/11/26 08:00:46;;;;;;;19.03;12.97;;;9.70;99.90;;;;;;5051054;28;20264;-68
2022/11/26 08:03:11;;;;;;;20.87;12.83;;;9.80;99.90;;;;;;5051426;28;20893;-69
2022/11/26 08:05:44;;;;;;;22.63;14.70;;;9.80;99.90;;;;;;5049288;28;20665;-69
2022/11/26 08:08:10;;;;;;;22.83;14.40;;;9.80;99.90;;;;;;5032095;28;20235;-69
2022/11/26 08:10:37;;;;;;;20.67;13.20;;;9.90;99.90;;;;;;5050181;28;20433;-69
2022/11/26 08:13:02;;;;;;;22.67;12.53;;;9.80;99.90;;;;;;5050989;28;20536;-68
2022/11/26 08:15:28;;;;;;;26.13;12.97;;;9.90;99.90;;;;;;5051129;28;20470;-69
2022/11/26 08:17:55;;;;;;;23.20;13.27;;;10.00;99.90;;;;;;5051889;28;20178;-68
2022/11/26 08:20:22;;;;;;;147.83;95.60;;;9.90;99.90;;;;;;5051270;28;20629;-69
2022/11/26 08:22:47;;;;;;;304.60;165.83;;;10.10;99.90;;;;;;5051907;28;20798;-69
2022/11/26 08:25:13;;;;;;;37.63;21.37;;;10.20;99.90;;;;;;5051271;28;20453;-68
2022/11/26 08:27:39;;;;;;;24.23;12.50;;;10.40;99.90;;;;;;5054554;28;20619;-68
2022/11/26 08:30:06;;;;;;;19.00;11.90;;;10.60;99.90;;;;;;5054658;28;20177;-68
2022/11/26 08:32:32;;;;;;;22.30;14.03;;;10.60;99.90;;;;;;5054618;28;20186;-70
2022/11/26 08:34:58;;;;;;;13.50;11.27;;;10.70;99.90;;;;;;5055395;28;20878;-68
2022/11/26 08:37:30;;;;;;;20.07;10.57;;;10.80;99.90;;;;;;5055531;28;20502;-68
2022/11/26 08:39:55;;;;;;;17.97;10.83;;;11.00;99.90;;;;;;5055879;28;20175;-68
2022/11/26 08:42:21;;;;;;;20.03;10.73;;;11.10;99.90;;;;;;5037516;28;20419;-68
2022/11/26 08:44:46;;;;;;;14.27;10.60;;;11.40;99.90;;;;;;5055035;28;20228;-68
2022/11/26 08:47:12;;;;;;;14.10;10.40;;;11.60;99.90;;;;;;5055563;28;20176;-68
2022/11/26 08:49:38;;;;;;;17.57;10.30;;;12.20;99.90;;;;;;5055298;28;20623;-68
2022/11/26 08:52:04;;;;;;;19.23;10.17;;;13.30;99.90;;;;;;5055364;28;20184;-68
2022/11/26 08:54:29;;;;;;;15.83;9.57;;;14.40;99.90;;;;;;5054998;28;20187;-69
2022/11/26 08:56:55;;;;;;;15.43;11.07;;;15.50;99.90;;;;;;5055419;28;20407;-68
2022/11/26 08:59:23;;;;;;;15.63;11.37;;;16.40;98.70;;;;;;4987717;28;20644;-68
2022/11/26 09:01:49;;;;;;;14.80;10.20;;;17.20;96.20;;;;;;5054772;28;20249;-68
2022/11/26 09:04:15;;;;;;;13.57;9.63;;;17.70;93.30;;;;;;5055212;28;20450;-68
2022/11/26 09:06:41;;;;;;;14.30;9.80;;;18.10;92.50;;;;;;5054259;28;20880;-68
2022/11/26 09:09:14;;;;;;;11.40;8.90;;;18.30;91.10;;;;;;5055161;28;20413;-68
2022/11/26 09:11:47;;;;;;;12.27;9.80;;;18.50;90.20;;;;;;5054218;28;20397;-68
2022/11/26 09:14:14;;;;;;;13.00;9.40;;;18.50;89.60;;;;;;5054814;28;20400;-68
2022/11/26 09:16:39;;;;;;;9.60;8.40;;;18.70;88.80;;;;;;5054289;28;20405;-68
2022/11/26 09:19:07;;;;;;;10.33;9.23;;;18.90;87.80;;;;;;5054937;28;20950;-68
2022/11/26 09:21:34;;;;;;;11.50;9.27;;;19.40;85.80;;;;;;5054178;28;20188;-69
2022/11/26 09:24:00;;;;;;;10.97;8.20;;;19.90;83.30;;;;;;5054510;28;20507;-68
2022/11/26 09:26:26;;;;;;;13.13;9.93;;;20.20;81.30;;;;;;5054580;28;21008;-68
2022/11/26 09:28:51;;;;;;;11.40;9.30;;;20.70;78.90;;;;;;5054334;28;20466;-68
2022/11/26 09:31:17;;;;;;;12.00;9.77;;;21.20;76.50;;;;;;5054919;28;20182;-68
2022/11/26 09:33:44;;;;;;;11.90;10.67;;;21.50;73.90;;;;;;5054288;28;20618;-68
2022/11/26 09:36:12;;;;;;;14.43;11.20;;;21.60;73.00;;;;;;5054530;28;20416;-68
2022/11/26 09:38:41;;;;;;;11.93;7.97;;;21.60;72.40;;;;;;5053952;28;20405;-68
2022/11/26 09:41:51;;;;;;;8.40;7.20;;;21.30;72.40;;;;;;5054961;28;20412;-68
2022/11/26 09:44:43;;;;;;;11.47;8.80;;;20.80;73.30;;;;;;4954167;29;20940;-68
2022/11/26 09:47:22;;;;;;;7.90;7.10;;;20.50;74.90;;;;;;5054458;28;20450;-68
2022/11/26 09:50:12;;;;;;;9.43;7.00;;;20.20;75.50;;;;;;5053926;28;20408;-68
2022/11/26 09:53:11;;;;;;;13.13;7.90;;;20.10;76.40;;;;;;5054028;28;20407;-68
2022/11/26 09:55:41;;;;;;;12.67;7.30;;;19.90;75.80;;;;;;5032061;28;20891;-68
2022/11/26 09:58:20;;;;;;;8.80;7.23;;;20.00;76.40;;;;;;5054299;28;20421;-68
2022/11/26 10:00:51;;;;;;;8.83;6.87;;;20.00;76.60;;;;;;5053722;28;20401;-68
2022/11/26 10:03:22;;;;;;;10.83;6.57;;;20.00;76.10;;;;;;5054318;28;20419;-68
2022/11/26 10:06:01;;;;;;;9.30;6.70;;;19.90;77.80;;;;;;5053548;28;20464;-68
2022/11/26 10:08:54;;;;;;;7.10;6.30;;;20.00;77.50;;;;;;5035945;28;20506;-68
2022/11/26 10:11:20;;;;;;;8.67;6.13;;;20.00;76.00;;;;;;5036497;28;20808;-68
2022/11/26 10:13:54;;;;;;;11.13;6.37;;;19.80;76.70;;;;;;5053461;28;20401;-68
2022/11/26 10:16:29;;;;;;;7.33;5.80;;;19.50;76.60;;;;;;5054146;28;20491;-68
2022/11/26 10:19:22;;;;;;;6.60;4.80;;;19.30;77.50;;;;;;5053862;28;20427;-68
2022/11/26 10:21:54;;;;;;;5.40;4.87;;;19.00;79.00;;;;;;5053684;28;20400;-68
2022/11/26 10:24:20;;;;;;;7.33;5.70;;;18.50;80.00;;;;;;5035950;28;20404;-68
2022/11/26 10:26:47;;;;;;;6.47;4.73;;;18.30;82.90;;;;;;5053262;28;20408;-68
2022/11/26 10:29:32;;;;;;;7.17;5.83;;;18.20;83.50;;;;;;5053825;28;20224;-68
2022/11/26 10:32:04;;;;;;;10.20;4.77;;;18.10;84.20;;;;;;5035410;28;20879;-68
2022/11/26 10:34:38;;;;;;;13.93;6.37;;;18.10;84.70;;;;;;5053685;28;20405;-68
2022/11/26 10:37:04;;;;;;;10.43;7.00;;;18.10;83.60;;;;;;5053350;28;20414;-68
2022/11/26 10:39:30;;;;;;;9.47;5.23;;;17.90;84.60;;;;;;5053588;28;20404;-68
2022/11/26 10:41:56;;;;;;;20.37;6.50;;;17.90;84.90;;;;;;5052844;28;20427;-68
2022/11/26 10:44:32;;;;;;;9.23;5.53;;;17.80;85.70;;;;;;5053624;28;20170;-68
2022/11/26 10:47:16;;;;;;;8.60;5.27;;;17.80;86.10;;;;;;5052551;28;20203;-68
2022/11/26 10:49:42;;;;;;;8.40;5.93;;;17.70;86.10;;;;;;5052209;28;20450;-68
2022/11/26 10:52:08;;;;;;;6.80;4.87;;;17.50;87.30;;;;;;5053415;28;20412;-68
2022/11/26 10:54:37;;;;;;;5.37;4.87;;;17.40;88.00;;;;;;5053072;28;20169;-68
2022/11/26 10:57:08;;;;;;;5.53;4.90;;;17.20;87.50;;;;;;5035103;28;20411;-68
2022/11/26 10:59:43;;;;;;;10.20;5.70;;;17.10;89.50;;;;;;5052992;28;20400;-68
2022/11/26 11:02:37;;;;;;;6.67;5.10;;;16.90;88.90;;;;;;5053086;28;20408;-68
2022/11/26 11:05:06;;;;;;;7.80;5.70;;;16.70;90.40;;;;;;5053095;28;20448;-68
2022/11/26 11:07:32;;;;;;;6.23;5.50;;;16.60;91.00;;;;;;5052915;28;20513;-68
2022/11/26 11:10:20;;;;;;;9.73;6.03;;;16.50;91.50;;;;;;5052331;28;20423;-68
2022/11/26 11:13:10;;;;;;;6.23;5.63;;;16.40;92.20;;;;;;5052411;28;20578;-68
2022/11/26 11:15:39;;;;;;;12.67;5.70;;;16.40;91.80;;;;;;5052628;28;20876;-68
2022/11/26 11:18:20;;;;;;;6.40;4.90;;;16.40;91.90;;;;;;5052855;28;20420;-68
2022/11/26 11:20:57;;;;;;;10.30;5.80;;;16.40;92.20;;;;;;5052321;28;20434;-69
2022/11/26 11:23:25;;;;;;;9.10;5.30;;;16.40;92.30;;;;;;5052810;28;20415;-68
2022/11/26 11:26:03;;;;;;;6.10;5.37;;;16.50;92.30;;;;;;5051838;28;20793;-68
2022/11/26 11:28:32;;;;;;;8.23;5.10;;;16.60;92.40;;;;;;5052700;28;20470;-68
2022/11/26 11:31:15;;;;;;;7.40;5.30;;;16.70;92.10;;;;;;5052055;28;20693;-68
2022/11/26 11:33:41;;;;;;;9.10;4.50;;;16.80;92.10;;;;;;5052143;28;20435;-68
2022/11/26 11:36:13;;;;;;;8.43;5.13;;;17.00;91.70;;;;;;5052886;28;20466;-68
2022/11/26 11:38:53;;;;;;;7.90;5.13;;;17.10;91.30;;;;;;5052109;28;20414;-69
2022/11/26 11:41:40;;;;;;;5.47;4.93;;;17.20;91.00;;;;;;5052542;28;20416;-68
2022/11/26 11:44:15;;;;;;;5.47;4.90;;;17.30;90.90;;;;;;5052734;28;20423;-68
2022/11/26 11:47:04;;;;;;;5.80;4.87;;;17.40;91.00;;;;;;5034148;28;20530;-68
2022/11/26 11:49:57;;;;;;;8.00;3.73;;;17.60;90.50;;;;;;5052587;28;20397;-68
2022/11/26 11:52:44;;;;;;;10.20;4.47;;;17.90;90.10;;;;;;5034847;28;20896;-68
2022/11/26 11:55:37;;;;;;;7.30;4.13;;;18.10;89.50;;;;;;5052495;28;20495;-68
2022/11/26 11:58:38;;;;;;;8.70;3.90;;;18.20;88.90;;;;;;5051853;28;20432;-68
2022/11/26 12:01:23;;;;;;;5.20;3.70;;;18.10;88.50;;;;;;5051131;28;20859;-68
2022/11/26 12:04:09;;;;;;;5.97;4.00;;;18.00;88.00;;;;;;5055895;28;20412;-68
2022/11/26 12:07:20;;;;;;;12.17;4.70;;;17.80;89.10;;;;;;5038453;28;20444;-68
2022/11/26 12:09:57;;;;;;;7.37;4.30;;;17.50;90.00;;;;;;5055656;28;20918;-68
2022/11/26 12:12:44;;;;;;;7.80;4.50;;;17.20;90.70;;;;;;5056483;28;20558;-68
2022/11/26 12:15:32;;;;;;;6.13;4.53;;;17.10;90.80;;;;;;5056149;28;20395;-68
2022/11/26 12:18:16;;;;;;;7.50;5.00;;;16.80;91.60;;;;;;5037592;28;20443;-68
2022/11/26 12:20:49;;;;;;;8.43;4.20;;;16.70;91.80;;;;;;5055893;28;20775;-71
2022/11/26 12:23:20;;;;;;;12.10;4.67;;;16.60;92.50;;;;;;5038340;28;20404;-68
2022/11/26 12:26:12;;;;;;;7.20;4.63;;;16.50;93.20;;;;;;5055744;28;20497;-68
2022/11/26 12:29:01;;;;;;;6.67;3.67;;;16.30;93.80;;;;;;5056227;28;20880;-68
2022/11/26 12:31:26;;;;;;;8.67;4.00;;;16.20;94.30;;;;;;5040336;28;20796;-68
2022/11/26 12:34:01;;;;;;;6.10;4.23;;;16.10;94.60;;;;;;5037500;28;20426;-68
2022/11/26 12:36:44;;;;;;;10.20;4.07;;;15.90;95.20;;;;;;5055735;28;20161;-68
2022/11/26 12:39:17;;;;;;;9.40;4.93;;;15.90;95.60;;;;;;5056126;28;20398;-68
2022/11/26 12:41:52;;;;;;;6.17;4.50;;;15.80;96.00;;;;;;5055634;28;20393;-68
2022/11/26 12:44:38;;;;;;;7.73;4.77;;;15.70;95.90;;;;;;5055461;28;20408;-68
2022/11/26 12:47:19;;;;;;;10.37;4.60;;;15.70;96.40;;;;;;5054971;28;20513;-68
2022/11/26 12:50:10;;;;;;;7.47;4.00;;;15.60;96.60;;;;;;5055211;28;20415;-68
2022/11/26 12:52:44;;;;;;;10.10;4.73;;;15.60;96.90;;;;;;5055910;28;20476;-68